sensor_id;sensor_type;location;lat;lon;timestamp;P1;durP1;ratioP1;P2;durP2;ratioP2
73271;SDS011;61497;51.088;5.886;2023-03-13T00:00:46;9.70;;;5.40;;
73271;SDS011;61497;51.088;5.886;2023-03-13T00:03:12;10.87;;;5.60;;
73271;SDS011;61497;51.088;5.886;2023-03-13T00:05:37;9.33;;;6.07;;
73271;SDS011;61497;51.088;5.886;2023-03-13T00:08:02;9.70;;;5.10;;
73271;SDS011;61497;51.088;5.886;2023-03-13T00:10:28;8.87;;;5.23;;
73271;SDS011;61497;51.088;5.886;2023-03-13T00:12:54;9.80;;;5.93;;
73271;SDS011;61497;51.088;5.886;2023-03-13T00:15:19;9.87;;;5.53;;
73271;SDS011;61497;51.088;5.886;2023-03-13T00:17:44;11.63;;;5.37;;
73271;SDS011;61497;51.088;5.886;2023-03-13T00:20:10;10.70;;;6.07;;
73271;SDS011;61497;51.088;5.886;2023-03-13T00:22:36;13.20;;;5.72;;
73271;SDS011;61497;51.088;5.886;2023-03-13T00:25:01;11.37;;;5.77;;
73271;SDS011;61497;51.088;5.886;2023-03-13T00:27:26;9.80;;;5.60;;
73271;SDS011;61497;51.088;5.886;2023-03-13T00:29:52;10.57;;;6.00;;
73271;SDS011;61497;51.088;5.886;2023-03-13T00:32:17;11.70;;;6.00;;
73271;SDS011;61497;51.088;5.886;2023-03-13T00:34:42;10.53;;;5.13;;
73271;SDS011;61497;51.088;5.886;2023-03-13T00:37:08;8.60;;;4.97;;
73271;SDS011;61497;51.088;5.886;2023-03-13T00:39:33;9.30;;;4.83;;
73271;SDS011;61497;51.088;5.886;2023-03-13T00:41:58;9.70;;;6.00;;
73271;SDS011;61497;51.088;5.886;2023-03-13T00:44:27;9.23;;;5.20;;
73271;SDS011;61497;51.088;5.886;2023-03-13T00:46:53;9.73;;;5.45;;
73271;SDS011;61497;51.088;5.886;2023-03-13T00:49:18;8.40;;;5.80;;
73271;SDS011;61497;51.088;5.886;2023-03-13T00:51:44;13.83;;;6.47;;
73271;SDS011;61497;51.088;5.886;2023-03-13T00:54:09;8.33;;;4.40;;
73271;SDS011;61497;51.088;5.886;2023-03-13T00:56:35;11.23;;;5.23;;
73271;SDS011;61497;51.088;5.886;2023-03-13T00:59:01;9.20;;;5.38;;
73271;SDS011;61497;51.088;5.886;2023-03-13T01:01:27;10.13;;;5.50;;
73271;SDS011;61497;51.088;5.886;2023-03-13T01:03:58;12.43;;;5.85;;
73271;SDS011;61497;51.088;5.886;2023-03-13T01:06:26;9.13;;;5.82;;
73271;SDS011;61497;51.088;5.886;2023-03-13T01:08:53;11.55;;;6.50;;
73271;SDS011;61497;51.088;5.886;2023-03-13T01:11:19;10.43;;;4.60;;
73271;SDS011;61497;51.088;5.886;2023-03-13T01:13:49;10.00;;;5.95;;
73271;SDS011;61497;51.088;5.886;2023-03-13T01:16:19;10.27;;;5.93;;
73271;SDS011;61497;51.088;5.886;2023-03-13T01:18:46;11.45;;;5.57;;
73271;SDS011;61497;51.088;5.886;2023-03-13T01:21:14;8.53;;;5.43;;
73271;SDS011;61497;51.088;5.886;2023-03-13T01:23:40;8.68;;;6.20;;
73271;SDS011;61497;51.088;5.886;2023-03-13T01:26:06;10.90;;;6.27;;
73271;SDS011;61497;51.088;5.886;2023-03-13T01:28:32;12.90;;;6.13;;
73271;SDS011;61497;51.088;5.886;2023-03-13T01:30:58;11.13;;;5.75;;
73271;SDS011;61497;51.088;5.886;2023-03-13T01:33:24;11.88;;;5.78;;
73271;SDS011;61497;51.088;5.886;2023-03-13T01:35:50;10.80;;;6.25;;
73271;SDS011;61497;51.088;5.886;2023-03-13T01:38:16;10.10;;;6.27;;
73271;SDS011;61497;51.088;5.886;2023-03-13T01:40:45;11.87;;;5.70;;
73271;SDS011;61497;51.088;5.886;2023-03-13T01:43:16;8.95;;;5.68;;
73271;SDS011;61497;51.088;5.886;2023-03-13T01:48:23;10.55;;;5.57;;
73271;SDS011;61497;51.088;5.886;2023-03-13T01:51:29;7.35;;;5.35;;
73271;SDS011;61497;51.088;5.886;2023-03-13T01:54:17;8.50;;;5.50;;
73271;SDS011;61497;51.088;5.886;2023-03-13T01:56:53;6.45;;;4.70;;
73271;SDS011;61497;51.088;5.886;2023-03-13T01:59:31;11.15;;;6.15;;
73271;SDS011;61497;51.088;5.886;2023-03-13T02:02:01;9.93;;;5.60;;
73271;SDS011;61497;51.088;5.886;2023-03-13T02:04:29;7.50;;;5.37;;
73271;SDS011;61497;51.088;5.886;2023-03-13T02:07:06;8.90;;;4.95;;
73271;SDS011;61497;51.088;5.886;2023-03-13T02:09:35;8.15;;;4.93;;
73271;SDS011;61497;51.088;5.886;2023-03-13T02:12:13;9.15;;;5.07;;
73271;SDS011;61497;51.088;5.886;2023-03-13T02:14:42;8.37;;;5.33;;
73271;SDS011;61497;51.088;5.886;2023-03-13T02:17:08;7.38;;;5.50;;
73271;SDS011;61497;51.088;5.886;2023-03-13T02:19:45;8.90;;;5.15;;
73271;SDS011;61497;51.088;5.886;2023-03-13T02:25:00;7.20;;;5.65;;
73271;SDS011;61497;51.088;5.886;2023-03-13T02:27:33;9.20;;;5.10;;
73271;SDS011;61497;51.088;5.886;2023-03-13T02:29:58;7.28;;;5.20;;
73271;SDS011;61497;51.088;5.886;2023-03-13T02:32:24;8.70;;;5.33;;
73271;SDS011;61497;51.088;5.886;2023-03-13T02:34:53;7.00;;;5.32;;
73271;SDS011;61497;51.088;5.886;2023-03-13T02:37:21;7.32;;;5.50;;
73271;SDS011;61497;51.088;5.886;2023-03-13T02:39:48;8.10;;;5.17;;
73271;SDS011;61497;51.088;5.886;2023-03-13T02:42:14;7.30;;;5.28;;
73271;SDS011;61497;51.088;5.886;2023-03-13T02:44:42;6.13;;;4.78;;
73271;SDS011;61497;51.088;5.886;2023-03-13T02:47:08;7.97;;;5.85;;
73271;SDS011;61497;51.088;5.886;2023-03-13T02:49:34;6.73;;;4.90;;
73271;SDS011;61497;51.088;5.886;2023-03-13T02:52:05;7.75;;;5.05;;
73271;SDS011;61497;51.088;5.886;2023-03-13T02:54:54;7.50;;;5.72;;
73271;SDS011;61497;51.088;5.886;2023-03-13T02:57:31;7.80;;;5.45;;
73271;SDS011;61497;51.088;5.886;2023-03-13T02:59:56;7.03;;;5.03;;
73271;SDS011;61497;51.088;5.886;2023-03-13T03:02:22;9.03;;;5.60;;
73271;SDS011;61497;51.088;5.886;2023-03-13T03:04:47;6.45;;;4.97;;
73271;SDS011;61497;51.088;5.886;2023-03-13T03:07:13;7.53;;;4.80;;
73271;SDS011;61497;51.088;5.886;2023-03-13T03:09:38;6.60;;;5.30;;
73271;SDS011;61497;51.088;5.886;2023-03-13T03:12:03;7.83;;;5.17;;
73271;SDS011;61497;51.088;5.886;2023-03-13T03:14:29;7.95;;;5.55;;
73271;SDS011;61497;51.088;5.886;2023-03-13T03:16:55;6.33;;;4.83;;
73271;SDS011;61497;51.088;5.886;2023-03-13T03:19:20;7.20;;;5.60;;
73271;SDS011;61497;51.088;5.886;2023-03-13T03:21:45;6.72;;;5.63;;
73271;SDS011;61497;51.088;5.886;2023-03-13T03:24:13;7.63;;;5.50;;
73271;SDS011;61497;51.088;5.886;2023-03-13T03:26:38;6.55;;;5.25;;
73271;SDS011;61497;51.088;5.886;2023-03-13T03:29:04;10.10;;;5.33;;
73271;SDS011;61497;51.088;5.886;2023-03-13T03:31:29;7.47;;;5.20;;
73271;SDS011;61497;51.088;5.886;2023-03-13T03:33:55;6.77;;;4.97;;
73271;SDS011;61497;51.088;5.886;2023-03-13T03:36:21;6.75;;;5.05;;
73271;SDS011;61497;51.088;5.886;2023-03-13T03:38:47;6.35;;;4.88;;
73271;SDS011;61497;51.088;5.886;2023-03-13T03:41:13;6.80;;;5.33;;
73271;SDS011;61497;51.088;5.886;2023-03-13T03:43:39;7.15;;;4.97;;
73271;SDS011;61497;51.088;5.886;2023-03-13T03:46:05;7.03;;;5.47;;
73271;SDS011;61497;51.088;5.886;2023-03-13T03:48:30;6.40;;;5.50;;
73271;SDS011;61497;51.088;5.886;2023-03-13T03:50:56;6.50;;;5.60;;
73271;SDS011;61497;51.088;5.886;2023-03-13T03:53:21;6.03;;;4.33;;
73271;SDS011;61497;51.088;5.886;2023-03-13T03:55:47;7.00;;;4.87;;
73271;SDS011;61497;51.088;5.886;2023-03-13T03:58:12;5.97;;;4.83;;
73271;SDS011;61497;51.088;5.886;2023-03-13T04:00:38;6.47;;;4.80;;
73271;SDS011;61497;51.088;5.886;2023-03-13T04:03:03;5.97;;;4.55;;
73271;SDS011;61497;51.088;5.886;2023-03-13T04:05:28;7.23;;;5.53;;
73271;SDS011;61497;51.088;5.886;2023-03-13T04:07:54;7.03;;;5.60;;
73271;SDS011;61497;51.088;5.886;2023-03-13T04:10:19;6.70;;;5.37;;
73271;SDS011;61497;51.088;5.886;2023-03-13T04:12:45;6.70;;;5.60;;
73271;SDS011;61497;51.088;5.886;2023-03-13T04:15:10;5.87;;;4.93;;
73271;SDS011;61497;51.088;5.886;2023-03-13T04:17:36;6.20;;;4.73;;
73271;SDS011;61497;51.088;5.886;2023-03-13T04:20:01;6.67;;;5.60;;
73271;SDS011;61497;51.088;5.886;2023-03-13T04:22:28;5.68;;;4.70;;
73271;SDS011;61497;51.088;5.886;2023-03-13T04:24:55;5.93;;;4.72;;
73271;SDS011;61497;51.088;5.886;2023-03-13T04:27:20;6.50;;;5.13;;
73271;SDS011;61497;51.088;5.886;2023-03-13T04:29:46;6.73;;;4.90;;
73271;SDS011;61497;51.088;5.886;2023-03-13T04:32:11;6.87;;;4.87;;
73271;SDS011;61497;51.088;5.886;2023-03-13T04:34:36;5.93;;;4.43;;
73271;SDS011;61497;51.088;5.886;2023-03-13T04:37:02;5.93;;;4.37;;
73271;SDS011;61497;51.088;5.886;2023-03-13T04:39:27;7.27;;;5.07;;
73271;SDS011;61497;51.088;5.886;2023-03-13T04:41:53;6.20;;;4.90;;
73271;SDS011;61497;51.088;5.886;2023-03-13T04:44:19;6.67;;;5.03;;
73271;SDS011;61497;51.088;5.886;2023-03-13T04:46:46;5.97;;;4.32;;
73271;SDS011;61497;51.088;5.886;2023-03-13T04:49:11;6.37;;;4.83;;
73271;SDS011;61497;51.088;5.886;2023-03-13T04:51:38;6.32;;;5.18;;
73271;SDS011;61497;51.088;5.886;2023-03-13T04:54:04;7.13;;;5.75;;
73271;SDS011;61497;51.088;5.886;2023-03-13T04:56:29;5.80;;;4.30;;
73271;SDS011;61497;51.088;5.886;2023-03-13T04:58:55;7.70;;;5.50;;
73271;SDS011;61497;51.088;5.886;2023-03-13T05:01:20;7.00;;;4.90;;
73271;SDS011;61497;51.088;5.886;2023-03-13T05:03:46;8.33;;;5.33;;
73271;SDS011;61497;51.088;5.886;2023-03-13T05:06:11;11.83;;;6.00;;
73271;SDS011;61497;51.088;5.886;2023-03-13T05:08:37;8.48;;;5.88;;
73271;SDS011;61497;51.088;5.886;2023-03-13T05:11:03;6.57;;;4.77;;
73271;SDS011;61497;51.088;5.886;2023-03-13T05:13:28;6.53;;;5.32;;
73271;SDS011;61497;51.088;5.886;2023-03-13T05:15:54;6.90;;;4.63;;
73271;SDS011;61497;51.088;5.886;2023-03-13T05:18:19;6.47;;;5.50;;
73271;SDS011;61497;51.088;5.886;2023-03-13T05:20:45;6.70;;;5.10;;
73271;SDS011;61497;51.088;5.886;2023-03-13T05:23:10;7.00;;;5.50;;
73271;SDS011;61497;51.088;5.886;2023-03-13T05:25:35;6.50;;;5.18;;
73271;SDS011;61497;51.088;5.886;2023-03-13T05:28:01;6.77;;;5.37;;
73271;SDS011;61497;51.088;5.886;2023-03-13T05:30:26;6.33;;;4.93;;
73271;SDS011;61497;51.088;5.886;2023-03-13T05:32:52;8.30;;;5.40;;
73271;SDS011;61497;51.088;5.886;2023-03-13T05:35:17;6.60;;;5.07;;
73271;SDS011;61497;51.088;5.886;2023-03-13T05:37:42;6.00;;;4.47;;
73271;SDS011;61497;51.088;5.886;2023-03-13T05:40:09;6.90;;;4.90;;
73271;SDS011;61497;51.088;5.886;2023-03-13T05:42:35;6.63;;;4.95;;
73271;SDS011;61497;51.088;5.886;2023-03-13T05:45:00;6.60;;;5.63;;
73271;SDS011;61497;51.088;5.886;2023-03-13T05:47:26;6.27;;;5.30;;
73271;SDS011;61497;51.088;5.886;2023-03-13T05:49:51;6.50;;;5.23;;
73271;SDS011;61497;51.088;5.886;2023-03-13T05:52:17;6.07;;;5.00;;
73271;SDS011;61497;51.088;5.886;2023-03-13T05:54:42;7.30;;;5.27;;
73271;SDS011;61497;51.088;5.886;2023-03-13T05:57:07;6.30;;;4.93;;
73271;SDS011;61497;51.088;5.886;2023-03-13T05:59:33;7.57;;;5.40;;
73271;SDS011;61497;51.088;5.886;2023-03-13T06:01:58;7.68;;;4.88;;
73271;SDS011;61497;51.088;5.886;2023-03-13T06:04:23;7.00;;;5.10;;
73271;SDS011;61497;51.088;5.886;2023-03-13T06:06:49;7.97;;;5.07;;
73271;SDS011;61497;51.088;5.886;2023-03-13T06:09:14;6.37;;;5.13;;
73271;SDS011;61497;51.088;5.886;2023-03-13T06:11:40;7.37;;;6.27;;
73271;SDS011;61497;51.088;5.886;2023-03-13T06:14:05;8.37;;;5.83;;
73271;SDS011;61497;51.088;5.886;2023-03-13T06:16:31;6.40;;;5.10;;
73271;SDS011;61497;51.088;5.886;2023-03-13T06:18:56;6.67;;;5.47;;
73271;SDS011;61497;51.088;5.886;2023-03-13T06:21:22;6.95;;;5.68;;
73271;SDS011;61497;51.088;5.886;2023-03-13T06:23:47;7.57;;;5.37;;
73271;SDS011;61497;51.088;5.886;2023-03-13T06:26:13;7.53;;;5.47;;
73271;SDS011;61497;51.088;5.886;2023-03-13T06:28:38;5.60;;;4.10;;
73271;SDS011;61497;51.088;5.886;2023-03-13T06:31:04;6.53;;;5.07;;
73271;SDS011;61497;51.088;5.886;2023-03-13T06:33:30;8.02;;;5.90;;
73271;SDS011;61497;51.088;5.886;2023-03-13T06:35:56;8.23;;;5.10;;
73271;SDS011;61497;51.088;5.886;2023-03-13T06:38:22;7.57;;;5.37;;
73271;SDS011;61497;51.088;5.886;2023-03-13T06:40:48;9.07;;;5.30;;
73271;SDS011;61497;51.088;5.886;2023-03-13T06:43:13;6.87;;;5.33;;
73271;SDS011;61497;51.088;5.886;2023-03-13T06:45:39;7.17;;;5.73;;
73271;SDS011;61497;51.088;5.886;2023-03-13T06:48:04;7.73;;;6.10;;
73271;SDS011;61497;51.088;5.886;2023-03-13T06:50:30;8.27;;;5.80;;
73271;SDS011;61497;51.088;5.886;2023-03-13T06:52:55;7.83;;;5.40;;
73271;SDS011;61497;51.088;5.886;2023-03-13T06:55:21;7.95;;;5.20;;
73271;SDS011;61497;51.088;5.886;2023-03-13T06:57:51;7.03;;;5.70;;
73271;SDS011;61497;51.088;5.886;2023-03-13T07:00:17;6.40;;;5.00;;
73271;SDS011;61497;51.088;5.886;2023-03-13T07:02:43;6.57;;;4.60;;
73271;SDS011;61497;51.088;5.886;2023-03-13T07:05:09;8.73;;;6.00;;
73271;SDS011;61497;51.088;5.886;2023-03-13T07:07:34;7.93;;;6.00;;
73271;SDS011;61497;51.088;5.886;2023-03-13T07:09:59;7.43;;;5.17;;
73271;SDS011;61497;51.088;5.886;2023-03-13T07:12:25;9.23;;;6.10;;
73271;SDS011;61497;51.088;5.886;2023-03-13T07:14:50;6.80;;;5.30;;
73271;SDS011;61497;51.088;5.886;2023-03-13T07:17:16;7.80;;;5.53;;
73271;SDS011;61497;51.088;5.886;2023-03-13T07:19:41;6.93;;;5.07;;
73271;SDS011;61497;51.088;5.886;2023-03-13T07:22:06;6.97;;;5.63;;
73271;SDS011;61497;51.088;5.886;2023-03-13T07:24:32;7.90;;;5.83;;
73271;SDS011;61497;51.088;5.886;2023-03-13T07:26:57;6.93;;;5.40;;
73271;SDS011;61497;51.088;5.886;2023-03-13T07:29:22;9.10;;;4.80;;
73271;SDS011;61497;51.088;5.886;2023-03-13T07:31:48;9.70;;;5.70;;
73271;SDS011;61497;51.088;5.886;2023-03-13T07:34:13;5.87;;;4.57;;
73271;SDS011;61497;51.088;5.886;2023-03-13T07:36:39;6.63;;;4.97;;
73271;SDS011;61497;51.088;5.886;2023-03-13T07:39:05;7.43;;;5.32;;
73271;SDS011;61497;51.088;5.886;2023-03-13T07:41:31;9.23;;;5.68;;
73271;SDS011;61497;51.088;5.886;2023-03-13T07:43:57;7.60;;;4.53;;
73271;SDS011;61497;51.088;5.886;2023-03-13T07:46:22;7.03;;;4.97;;
73271;SDS011;61497;51.088;5.886;2023-03-13T07:48:47;6.37;;;5.27;;
73271;SDS011;61497;51.088;5.886;2023-03-13T07:51:14;8.20;;;4.95;;
73271;SDS011;61497;51.088;5.886;2023-03-13T07:53:44;7.13;;;5.68;;
73271;SDS011;61497;51.088;5.886;2023-03-13T07:56:14;8.37;;;5.70;;
73271;SDS011;61497;51.088;5.886;2023-03-13T07:58:41;6.43;;;4.82;;
73271;SDS011;61497;51.088;5.886;2023-03-13T08:01:10;8.60;;;5.43;;
73271;SDS011;61497;51.088;5.886;2023-03-13T08:03:46;8.05;;;6.10;;
73271;SDS011;61497;51.088;5.886;2023-03-13T08:06:14;7.60;;;5.53;;
73271;SDS011;61497;51.088;5.886;2023-03-13T08:08:42;7.70;;;5.83;;
73271;SDS011;61497;51.088;5.886;2023-03-13T08:11:08;6.85;;;5.47;;
73271;SDS011;61497;51.088;5.886;2023-03-13T08:13:36;9.00;;;6.15;;
73271;SDS011;61497;51.088;5.886;2023-03-13T08:16:05;7.75;;;5.85;;
73271;SDS011;61497;51.088;5.886;2023-03-13T08:18:35;7.60;;;5.67;;
73271;SDS011;61497;51.088;5.886;2023-03-13T08:21:06;7.65;;;6.35;;
73271;SDS011;61497;51.088;5.886;2023-03-13T08:23:32;8.00;;;5.25;;
73271;SDS011;61497;51.088;5.886;2023-03-13T08:26:04;7.20;;;5.03;;
73271;SDS011;61497;51.088;5.886;2023-03-13T08:28:31;9.10;;;6.03;;
73271;SDS011;61497;51.088;5.886;2023-03-13T08:30:57;8.20;;;6.20;;
73271;SDS011;61497;51.088;5.886;2023-03-13T08:33:22;7.57;;;5.20;;
73271;SDS011;61497;51.088;5.886;2023-03-13T08:35:48;7.50;;;5.13;;
73271;SDS011;61497;51.088;5.886;2023-03-13T08:38:13;8.13;;;5.57;;
73271;SDS011;61497;51.088;5.886;2023-03-13T08:40:39;6.28;;;4.97;;
73271;SDS011;61497;51.088;5.886;2023-03-13T08:43:04;8.73;;;6.30;;
73271;SDS011;61497;51.088;5.886;2023-03-13T08:45:30;7.20;;;5.73;;
73271;SDS011;61497;51.088;5.886;2023-03-13T08:47:55;7.43;;;5.83;;
73271;SDS011;61497;51.088;5.886;2023-03-13T08:50:20;7.30;;;5.27;;
73271;SDS011;61497;51.088;5.886;2023-03-13T08:52:46;6.50;;;4.72;;
73271;SDS011;61497;51.088;5.886;2023-03-13T08:55:11;6.83;;;5.87;;
73271;SDS011;61497;51.088;5.886;2023-03-13T08:57:36;7.17;;;4.83;;
73271;SDS011;61497;51.088;5.886;2023-03-13T09:00:02;7.90;;;5.73;;
73271;SDS011;61497;51.088;5.886;2023-03-13T09:02:30;6.95;;;5.53;;
73271;SDS011;61497;51.088;5.886;2023-03-13T09:04:56;9.47;;;5.90;;
73271;SDS011;61497;51.088;5.886;2023-03-13T09:07:21;8.45;;;6.00;;
73271;SDS011;61497;51.088;5.886;2023-03-13T09:09:47;8.50;;;6.40;;
73271;SDS011;61497;51.088;5.886;2023-03-13T09:12:12;6.77;;;5.30;;
73271;SDS011;61497;51.088;5.886;2023-03-13T09:14:37;7.27;;;5.43;;
73271;SDS011;61497;51.088;5.886;2023-03-13T09:17:03;8.10;;;5.60;;
73271;SDS011;61497;51.088;5.886;2023-03-13T09:19:28;7.85;;;5.97;;
73271;SDS011;61497;51.088;5.886;2023-03-13T09:21:54;7.20;;;4.93;;
73271;SDS011;61497;51.088;5.886;2023-03-13T09:24:19;7.73;;;5.53;;
73271;SDS011;61497;51.088;5.886;2023-03-13T09:26:45;7.33;;;5.80;;
73271;SDS011;61497;51.088;5.886;2023-03-13T09:29:10;6.30;;;5.07;;
73271;SDS011;61497;51.088;5.886;2023-03-13T09:31:35;6.57;;;4.70;;
73271;SDS011;61497;51.088;5.886;2023-03-13T09:34:02;6.97;;;5.40;;
73271;SDS011;61497;51.088;5.886;2023-03-13T09:36:28;6.37;;;4.97;;
73271;SDS011;61497;51.088;5.886;2023-03-13T09:38:54;7.73;;;5.80;;
73271;SDS011;61497;51.088;5.886;2023-03-13T09:41:26;7.93;;;5.53;;
73271;SDS011;61497;51.088;5.886;2023-03-13T09:44:08;7.32;;;5.53;;
73271;SDS011;61497;51.088;5.886;2023-03-13T09:46:41;7.32;;;5.60;;
73271;SDS011;61497;51.088;5.886;2023-03-13T09:49:30;7.07;;;5.93;;
73271;SDS011;61497;51.088;5.886;2023-03-13T10:00:18;7.05;;;5.38;;
73271;SDS011;61497;51.088;5.886;2023-03-13T10:02:56;6.95;;;5.53;;
73271;SDS011;61497;51.088;5.886;2023-03-13T10:05:24;6.60;;;5.47;;
73271;SDS011;61497;51.088;5.886;2023-03-13T10:07:59;6.07;;;5.17;;
73271;SDS011;61497;51.088;5.886;2023-03-13T10:10:43;6.65;;;5.75;;
73271;SDS011;61497;51.088;5.886;2023-03-13T10:13:22;6.65;;;5.35;;
73271;SDS011;61497;51.088;5.886;2023-03-13T10:15:56;8.10;;;5.82;;
73271;SDS011;61497;51.088;5.886;2023-03-13T10:18:24;6.57;;;5.20;;
73271;SDS011;61497;51.088;5.886;2023-03-13T10:20:56;7.17;;;5.50;;
73271;SDS011;61497;51.088;5.886;2023-03-13T10:26:01;6.97;;;5.50;;
73271;SDS011;61497;51.088;5.886;2023-03-13T10:28:26;6.80;;;5.40;;
73271;SDS011;61497;51.088;5.886;2023-03-13T10:30:53;8.73;;;5.87;;
73271;SDS011;61497;51.088;5.886;2023-03-13T10:33:25;6.07;;;4.65;;
73271;SDS011;61497;51.088;5.886;2023-03-13T10:36:05;6.65;;;5.50;;
73271;SDS011;61497;51.088;5.886;2023-03-13T10:38:44;7.20;;;5.75;;
73271;SDS011;61497;51.088;5.886;2023-03-13T10:41:26;6.65;;;5.40;;
73271;SDS011;61497;51.088;5.886;2023-03-13T10:43:57;6.50;;;5.67;;
73271;SDS011;61497;51.088;5.886;2023-03-13T10:46:25;6.63;;;5.03;;
73271;SDS011;61497;51.088;5.886;2023-03-13T10:48:55;7.45;;;5.78;;
73271;SDS011;61497;51.088;5.886;2023-03-13T10:51:23;6.55;;;5.82;;
73271;SDS011;61497;51.088;5.886;2023-03-13T10:53:49;7.05;;;5.43;;
73271;SDS011;61497;51.088;5.886;2023-03-13T10:56:18;6.67;;;5.90;;
73271;SDS011;61497;51.088;5.886;2023-03-13T10:58:49;6.85;;;4.53;;
73271;SDS011;61497;51.088;5.886;2023-03-13T11:01:23;5.82;;;4.50;;
73271;SDS011;61497;51.088;5.886;2023-03-13T11:03:51;6.50;;;5.47;;
73271;SDS011;61497;51.088;5.886;2023-03-13T11:14:21;6.00;;;4.75;;
73271;SDS011;61497;51.088;5.886;2023-03-13T11:16:49;5.60;;;4.93;;
73271;SDS011;61497;51.088;5.886;2023-03-13T11:24:27;6.10;;;5.00;;
73271;SDS011;61497;51.088;5.886;2023-03-13T11:32:58;5.90;;;4.80;;
73271;SDS011;61497;51.088;5.886;2023-03-13T11:38:48;5.28;;;4.25;;
73271;SDS011;61497;51.088;5.886;2023-03-13T11:43:39;6.15;;;4.88;;
73271;SDS011;61497;51.088;5.886;2023-03-13T11:46:17;5.60;;;4.13;;
73271;SDS011;61497;51.088;5.886;2023-03-13T11:49:00;5.50;;;3.50;;
73271;SDS011;61497;51.088;5.886;2023-03-13T11:51:36;5.13;;;3.78;;
73271;SDS011;61497;51.088;5.886;2023-03-13T11:57:17;5.68;;;4.22;;
73271;SDS011;61497;51.088;5.886;2023-03-13T12:00:15;5.47;;;4.28;;
73271;SDS011;61497;51.088;5.886;2023-03-13T12:02:51;6.17;;;4.37;;
73271;SDS011;61497;51.088;5.886;2023-03-13T12:05:19;5.75;;;4.75;;
73271;SDS011;61497;51.088;5.886;2023-03-13T12:07:50;6.47;;;4.70;;
73271;SDS011;61497;51.088;5.886;2023-03-13T12:10:26;6.05;;;4.05;;
73271;SDS011;61497;51.088;5.886;2023-03-13T12:13:18;5.30;;;4.20;;
73271;SDS011;61497;51.088;5.886;2023-03-13T12:15:48;6.13;;;4.63;;
73271;SDS011;61497;51.088;5.886;2023-03-13T12:20:54;5.43;;;4.25;;
73271;SDS011;61497;51.088;5.886;2023-03-13T12:23:35;5.63;;;4.75;;
73271;SDS011;61497;51.088;5.886;2023-03-13T12:26:09;5.50;;;4.50;;
73271;SDS011;61497;51.088;5.886;2023-03-13T12:31:30;5.63;;;4.35;;
73271;SDS011;61497;51.088;5.886;2023-03-13T12:34:02;6.05;;;4.78;;
73271;SDS011;61497;51.088;5.886;2023-03-13T12:44:43;6.00;;;5.10;;
73271;SDS011;61497;51.088;5.886;2023-03-13T13:00:25;5.40;;;4.60;;
73271;SDS011;61497;51.088;5.886;2023-03-13T13:03:08;5.60;;;4.75;;
73271;SDS011;61497;51.088;5.886;2023-03-13T13:05:37;6.00;;;4.77;;
73271;SDS011;61497;51.088;5.886;2023-03-13T13:08:03;5.10;;;4.13;;
73271;SDS011;61497;51.088;5.886;2023-03-13T13:10:28;5.47;;;4.77;;
73271;SDS011;61497;51.088;5.886;2023-03-13T13:15:40;5.25;;;4.15;;
73271;SDS011;61497;51.088;5.886;2023-03-13T13:18:13;5.63;;;4.88;;
73271;SDS011;61497;51.088;5.886;2023-03-13T13:20:49;5.82;;;4.32;;
73271;SDS011;61497;51.088;5.886;2023-03-13T13:23:40;5.57;;;4.30;;
73271;SDS011;61497;51.088;5.886;2023-03-13T13:36:56;5.30;;;4.27;;
73271;SDS011;61497;51.088;5.886;2023-03-13T13:39:39;5.60;;;4.97;;
73271;SDS011;61497;51.088;5.886;2023-03-13T13:47:26;5.97;;;4.95;;
73271;SDS011;61497;51.088;5.886;2023-03-13T13:49:53;5.70;;;4.90;;
73271;SDS011;61497;51.088;5.886;2023-03-13T13:52:56;6.13;;;4.60;;
73271;SDS011;61497;51.088;5.886;2023-03-13T13:55:28;5.63;;;4.45;;
73271;SDS011;61497;51.088;5.886;2023-03-13T13:58:01;5.60;;;4.35;;
73271;SDS011;61497;51.088;5.886;2023-03-13T14:00:51;6.40;;;4.65;;
73271;SDS011;61497;51.088;5.886;2023-03-13T14:03:20;5.80;;;4.37;;
73271;SDS011;61497;51.088;5.886;2023-03-13T14:05:46;5.50;;;4.15;;
73271;SDS011;61497;51.088;5.886;2023-03-13T14:08:18;6.88;;;4.78;;
73271;SDS011;61497;51.088;5.886;2023-03-13T14:13:39;6.60;;;4.53;;
73271;SDS011;61497;51.088;5.886;2023-03-13T14:16:22;7.27;;;4.20;;
73271;SDS011;61497;51.088;5.886;2023-03-13T14:18:49;5.55;;;4.43;;
73271;SDS011;61497;51.088;5.886;2023-03-13T14:21:19;5.68;;;4.30;;
73271;SDS011;61497;51.088;5.886;2023-03-13T14:23:45;5.40;;;4.25;;
73271;SDS011;61497;51.088;5.886;2023-03-13T14:26:12;5.50;;;4.20;;
73271;SDS011;61497;51.088;5.886;2023-03-13T14:28:44;8.20;;;4.95;;
73271;SDS011;61497;51.088;5.886;2023-03-13T14:31:20;5.78;;;4.50;;
73271;SDS011;61497;51.088;5.886;2023-03-13T14:33:56;6.28;;;5.15;;
73271;SDS011;61497;51.088;5.886;2023-03-13T14:36:22;5.73;;;5.10;;
73271;SDS011;61497;51.088;5.886;2023-03-13T14:39:05;5.65;;;4.53;;
73271;SDS011;61497;51.088;5.886;2023-03-13T14:41:36;6.35;;;4.88;;
73271;SDS011;61497;51.088;5.886;2023-03-13T14:44:13;5.57;;;4.33;;
73271;SDS011;61497;51.088;5.886;2023-03-13T14:46:41;6.57;;;4.80;;
73271;SDS011;61497;51.088;5.886;2023-03-13T14:49:14;6.80;;;4.95;;
73271;SDS011;61497;51.088;5.886;2023-03-13T14:51:44;5.90;;;4.88;;
73271;SDS011;61497;51.088;5.886;2023-03-13T14:54:53;5.63;;;4.57;;
73271;SDS011;61497;51.088;5.886;2023-03-13T14:57:04;5.77;;;4.70;;
73271;SDS011;61497;51.088;5.886;2023-03-13T14:59:36;5.07;;;4.03;;
73271;SDS011;61497;51.088;5.886;2023-03-13T15:02:02;5.70;;;4.93;;
73271;SDS011;61497;51.088;5.886;2023-03-13T15:04:58;5.75;;;4.35;;
73271;SDS011;61497;51.088;5.886;2023-03-13T15:07:46;6.13;;;5.10;;
73271;SDS011;61497;51.088;5.886;2023-03-13T15:12:50;5.93;;;4.82;;
73271;SDS011;61497;51.088;5.886;2023-03-13T15:15:17;5.93;;;4.87;;
73271;SDS011;61497;51.088;5.886;2023-03-13T15:17:42;5.47;;;4.10;;
73271;SDS011;61497;51.088;5.886;2023-03-13T15:20:09;6.03;;;3.93;;
73271;SDS011;61497;51.088;5.886;2023-03-13T15:22:35;6.18;;;4.80;;
73271;SDS011;61497;51.088;5.886;2023-03-13T15:25:03;6.55;;;4.32;;
73271;SDS011;61497;51.088;5.886;2023-03-13T15:27:31;6.55;;;4.55;;
73271;SDS011;61497;51.088;5.886;2023-03-13T15:29:56;7.10;;;4.53;;
73271;SDS011;61497;51.088;5.886;2023-03-13T15:32:26;6.00;;;4.73;;
73271;SDS011;61497;51.088;5.886;2023-03-13T15:34:53;6.20;;;4.65;;
73271;SDS011;61497;51.088;5.886;2023-03-13T15:37:22;6.53;;;5.35;;
73271;SDS011;61497;51.088;5.886;2023-03-13T15:39:48;6.80;;;4.70;;
73271;SDS011;61497;51.088;5.886;2023-03-13T15:42:13;6.07;;;4.38;;
73271;SDS011;61497;51.088;5.886;2023-03-13T15:44:39;6.10;;;4.07;;
73271;SDS011;61497;51.088;5.886;2023-03-13T15:47:04;6.70;;;4.70;;
73271;SDS011;61497;51.088;5.886;2023-03-13T15:49:32;5.82;;;4.18;;
73271;SDS011;61497;51.088;5.886;2023-03-13T15:51:57;5.97;;;4.63;;
73271;SDS011;61497;51.088;5.886;2023-03-13T15:54:22;5.90;;;4.47;;
73271;SDS011;61497;51.088;5.886;2023-03-13T15:56:48;6.53;;;4.22;;
73271;SDS011;61497;51.088;5.886;2023-03-13T15:59:14;5.63;;;3.93;;
73271;SDS011;61497;51.088;5.886;2023-03-13T16:01:43;6.20;;;4.30;;
73271;SDS011;61497;51.088;5.886;2023-03-13T16:04:09;6.00;;;4.13;;
73271;SDS011;61497;51.088;5.886;2023-03-13T16:06:35;6.77;;;4.87;;
73271;SDS011;61497;51.088;5.886;2023-03-13T16:09:01;6.78;;;4.38;;
73271;SDS011;61497;51.088;5.886;2023-03-13T16:11:29;5.73;;;4.23;;
73271;SDS011;61497;51.088;5.886;2023-03-13T16:13:55;5.35;;;4.15;;
73271;SDS011;61497;51.088;5.886;2023-03-13T16:16:27;6.13;;;4.67;;
73271;SDS011;61497;51.088;5.886;2023-03-13T16:18:54;6.72;;;4.97;;
73271;SDS011;61497;51.088;5.886;2023-03-13T16:21:22;6.72;;;4.82;;
73271;SDS011;61497;51.088;5.886;2023-03-13T16:23:49;6.05;;;4.47;;
73271;SDS011;61497;51.088;5.886;2023-03-13T16:26:16;5.30;;;4.07;;
73271;SDS011;61497;51.088;5.886;2023-03-13T16:28:43;6.90;;;4.55;;